Terminal Aerodrome Forecast
Issued by NWS Buffalo, NY

Home | Current Version | Previous Version | Text Only | Print | Product List | Glossary On
Versions: 1 2 3 4 5 6 7 8 9 10 11 12 13 14 15 16 17 18 19 20 21 22 23 24
000
FTUS41 KBUF 210500
TAFBUF
TAF
KBUF 210537Z 2106/2206 21004KT P6SM BKN140
     FM210900 21005KT P6SM FEW025 SCT250
     FM211200 22005KT P6SM BKN035
     FM211500 24008KT P6SM VCSH BKN045 BKN250
     FM212000 25010KT P6SM VCSH BKN060
     FM220000 25005KT P6SM BKN060=

USA.gov is the U.S. government's official web portal to all federal, state and local government web resources and services.